METAR Data
IDs: Format: Raw Decoded Include TAF

Data at: 0152 UTC 29 Nov 2020

METAR for:KIFA (Iowa Falls Muni, IA, US)
Text:KIFA 290135Z AUTO 21010KT 10SM CLR 06/01 A2998 RMK AO2 T00550005
Temperature: 5.5°C ( 42°F)
Dewpoint: 0.5°C ( 33°F) [RH = 70%]
Pressure (altimeter):29.98 inches Hg (1015.3 mb)
Winds:from the SSW (210 degrees) at 12 MPH (10 knots; 5.1 m/s)
Visibility:10 or more sm (16+ km)
Ceiling:at least 12,000 feet AGL
Clouds:sky clear below 12,000 feet AGL
QC Flag:automated observation with no human augmentation